Time;durP1;ratioP1;P1;durP2;ratioP2;P2;SDS_P1;SDS_P2;PMS_P1;PMS_P2;Temp;Humidity;BMP_temperature;BMP_pressure;BME280_temperature;BME280_humidity;BME280_pressure;Samples;Min_cycle;Max_cycle;Signal;HPM_P1;HPM_P2
2021/11/22 00:00:51;;;;;;;1.02;0.22;;;2.60;99.90;;;0.77;100.00;101118.13;4969655;28;20045;-79
2021/11/22 00:03:19;;;;;;;0.30;0.30;;;2.60;99.90;;;0.70;100.00;101111.25;5002880;28;20030;-80
2021/11/22 00:05:47;;;;;;;0.70;0.10;;;2.50;99.90;;;0.60;100.00;101118.16;4966736;28;24721;-79
2021/11/22 00:08:16;;;;;;;0.43;0.20;;;2.30;99.90;;;0.42;100.00;101110.34;4940644;28;20022;-80
2021/11/22 00:10:42;;;;;;;3.83;0.20;;;2.20;99.90;;;0.30;100.00;101118.09;4979161;28;20391;-80
2021/11/22 00:13:08;;;;;;;0.93;0.20;;;2.10;99.90;;;0.21;100.00;101124.13;4955854;28;20083;-80
2021/11/22 00:15:34;;;;;;;0.32;0.32;;;2.10;99.90;;;0.13;100.00;101121.53;4986040;28;20409;-80
2021/11/22 00:18:00;;;;;;;0.28;0.17;;;2.00;99.90;;;0.16;100.00;101112.91;4954148;28;20378;-80
2021/11/22 00:20:26;;;;;;;0.17;0.10;;;2.20;99.90;;;0.50;100.00;101150.09;4958648;28;20039;-79
2021/11/22 00:22:53;;;;;;;1.55;0.13;;;2.40;99.90;;;0.81;100.00;101163.94;4972698;28;20037;-79
2021/11/22 00:25:20;;;;;;;0.75;0.10;;;2.60;99.90;;;0.93;100.00;101162.22;4972518;28;20053;-79
2021/11/22 00:27:49;;;;;;;0.63;0.22;;;2.70;99.90;;;0.92;100.00;101152.72;4952380;28;20023;-80
2021/11/22 00:30:15;;;;;;;2.55;0.30;;;2.60;99.90;;;0.71;100.00;101149.25;4907228;28;20033;-78
2021/11/22 00:32:44;;;;;;;0.43;0.30;;;2.50;99.90;;;0.40;100.00;101138.84;4986258;28;20614;-78
2021/11/22 00:35:13;;;;;;;0.30;0.15;;;2.20;99.90;;;0.14;100.00;101128.44;4939657;28;20094;-80
2021/11/22 00:37:41;;;;;;;0.05;0.05;;;2.10;99.90;;;0.12;100.00;101122.38;4968182;28;20062;-80
2021/11/22 00:40:11;;;;;;;0.17;0.10;;;2.00;99.90;;;-0.06;100.00;101138.72;4967320;28;20406;-80
2021/11/22 00:42:41;;;;;;;0.98;0.10;;;1.90;99.90;;;-0.11;100.00;101145.63;4929940;28;20038;-78
2021/11/22 00:45:08;;;;;;;0.35;0.10;;;1.80;99.90;;;-0.25;100.00;101148.13;4986305;28;20405;-80
2021/11/22 00:47:36;;;;;;;1.23;0.10;;;1.60;99.90;;;-0.32;100.00;101151.56;4948556;28;20133;-79
2021/11/22 00:50:04;;;;;;;0.75;0.00;;;1.60;99.90;;;-0.35;100.00;101148.94;4995372;28;20424;-79
2021/11/22 00:52:31;;;;;;;0.70;0.10;;;1.60;99.90;;;-0.35;100.00;101161.03;4933621;28;20592;-80
2021/11/22 00:54:59;;;;;;;0.85;0.10;;;1.50;99.90;;;-0.36;100.00;101165.34;4944384;28;20580;-80
2021/11/22 00:57:25;;;;;;;2.40;0.13;;;1.60;99.90;;;-0.33;100.00;101188.63;4963881;28;20072;-80
2021/11/22 00:59:51;;;;;;;3.50;0.30;;;1.60;99.90;;;-0.34;100.00;101186.06;4943272;28;20034;-79
2021/11/22 01:02:17;;;;;;;2.90;0.10;;;1.50;99.90;;;-0.40;100.00;101192.06;4940411;28;20491;-80
2021/11/22 01:04:43;;;;;;;1.15;0.25;;;1.40;99.90;;;-0.48;100.00;101166.13;4936133;28;20086;-79
2021/11/22 01:07:14;;;;;;;0.20;0.10;;;1.50;99.90;;;-0.47;100.00;101200.66;4934903;28;20114;-79
2021/11/22 01:09:40;;;;;;;0.10;0.10;;;1.50;99.90;;;-0.46;100.00;101207.53;4957736;28;20060;-80
2021/11/22 01:12:07;;;;;;;0.10;0.10;;;1.50;99.90;;;-0.49;100.00;101204.94;4950628;28;20014;-79
2021/11/22 01:14:36;;;;;;;2.00;0.28;;;1.50;99.90;;;-0.51;100.00;101206.66;4977784;28;20103;-79
2021/11/22 01:17:05;;;;;;;1.13;0.17;;;1.50;99.90;;;-0.49;100.00;101218.72;4958540;28;20029;-79
2021/11/22 01:19:31;;;;;;;0.10;0.10;;;1.50;99.90;;;-0.39;100.00;101230.00;4994100;28;20116;-80
2021/11/22 01:21:58;;;;;;;0.52;0.13;;;1.60;99.90;;;-0.34;100.00;101236.09;4966312;28;20058;-79
2021/11/22 01:24:24;;;;;;;0.22;0.10;;;1.60;99.90;;;-0.15;100.00;101242.25;4991409;28;20080;-80
2021/11/22 01:26:50;;;;;;;3.05;0.30;;;1.90;99.90;;;0.29;100.00;101262.31;4985074;28;20488;-79
2021/11/22 01:29:16;;;;;;;0.10;0.10;;;2.10;99.90;;;0.27;100.00;101270.94;4974138;28;20471;-79
2021/11/22 01:31:44;;;;;;;2.70;0.30;;;2.10;99.90;;;0.11;100.00;101265.69;4958902;28;20130;-79
2021/11/22 01:34:10;;;;;;;0.20;0.20;;;2.10;99.90;;;0.11;100.00;101273.44;4970394;28;20046;-80
2021/11/22 01:36:36;;;;;;;1.40;0.22;;;2.10;99.90;;;0.18;100.00;101279.53;4973399;28;20381;-79
2021/11/22 01:39:04;;;;;;;0.85;0.22;;;2.10;99.90;;;0.15;100.00;101279.50;4972640;28;20028;-80
2021/11/22 01:41:30;;;;;;;0.10;0.10;;;2.00;99.90;;;-0.02;100.00;101277.69;4964706;28;20065;-78
2021/11/22 01:43:58;;;;;;;2.30;0.05;;;1.90;99.90;;;0.08;100.00;101294.13;4959087;28;20551;-79
2021/11/22 01:46:27;;;;;;;0.70;0.20;;;2.10;99.90;;;0.28;100.00;101301.13;4958662;28;20196;-80
2021/11/22 01:48:56;;;;;;;0.35;0.17;;;2.20;99.90;;;0.48;100.00;101309.03;4962403;28;20054;-80
2021/11/22 01:51:22;;;;;;;1.30;0.13;;;2.30;99.90;;;0.37;100.00;101315.00;4969520;28;20496;-80
2021/11/22 01:53:48;;;;;;;3.70;0.20;;;2.40;99.90;;;0.60;100.00;101333.25;4968777;28;20490;-78
2021/11/22 01:56:14;;;;;;;0.38;0.10;;;2.60;99.90;;;0.71;100.00;101332.41;4935631;28;20092;-80
2021/11/22 01:58:43;;;;;;;2.28;0.20;;;2.70;99.90;;;0.78;100.00;101329.88;4963988;28;20655;-79
2021/11/22 02:01:09;;;;;;;0.30;0.10;;;2.70;99.90;;;0.68;100.00;101329.81;4950445;28;20041;-79
2021/11/22 02:03:35;;;;;;;0.10;0.10;;;2.60;99.90;;;0.62;100.00;101328.06;4954545;28;20030;-79
2021/11/22 02:06:01;;;;;;;0.30;0.10;;;2.50;99.90;;;0.52;100.00;101337.53;4976111;28;20042;-79
2021/11/22 02:08:27;;;;;;;0.82;0.20;;;2.50;99.90;;;0.46;100.00;101332.31;4944355;28;20517;-79
2021/11/22 02:10:53;;;;;;;0.20;0.20;;;2.40;99.90;;;0.37;100.00;101327.09;4975219;28;20030;-79
2021/11/22 02:13:20;;;;;;;2.28;0.30;;;2.30;99.90;;;0.32;100.00;101328.78;4959787;28;20029;-79
2021/11/22 02:15:46;;;;;;;0.28;0.10;;;2.20;99.90;;;0.15;100.00;101324.41;4959204;28;21280;-80
2021/11/22 02:18:13;;;;;;;0.68;0.10;;;2.00;99.90;;;0.08;100.00;101324.34;4978285;28;20441;-79
2021/11/22 02:20:39;;;;;;;0.25;0.10;;;2.00;99.90;;;0.06;100.00;101320.88;4974855;28;20132;-79
2021/11/22 02:23:12;;;;;;;0.20;0.10;;;2.00;99.90;;;0.25;100.00;101337.41;4973188;28;20064;-79
2021/11/22 02:25:42;;;;;;;3.03;0.20;;;2.30;99.90;;;0.39;100.00;101340.94;4945188;28;20460;-79
2021/11/22 02:28:10;;;;;;;0.65;0.20;;;2.30;99.90;;;0.39;100.00;101331.44;4945885;28;20514;-79
2021/11/22 02:30:42;;;;;;;1.13;0.20;;;2.30;99.90;;;0.47;100.00;101340.97;4951914;28;20041;-78
2021/11/22 02:33:15;;;;;;;2.42;0.25;;;2.40;99.90;;;0.57;100.00;101334.97;4983153;28;20485;-79
2021/11/22 02:35:51;;;;;;;0.05;0.05;;;2.40;99.90;;;0.49;100.00;101334.91;4958665;28;20035;-79
2021/11/22 02:38:22;;;;;;;1.20;0.20;;;2.40;99.90;;;0.45;100.00;101332.31;4982639;28;20026;-78
2021/11/22 02:40:51;;;;;;;5.68;0.32;;;2.40;99.90;;;0.43;100.00;101337.47;4972776;28;20064;-79
2021/11/22 02:43:18;;;;;;;1.45;0.20;;;2.40;99.90;;;0.63;100.00;101339.28;4953358;28;20057;-78
2021/11/22 02:45:44;;;;;;;0.95;0.28;;;2.50;99.90;;;0.70;100.00;101344.53;4982487;28;20147;-79
2021/11/22 02:48:10;;;;;;;0.20;0.10;;;2.70;99.90;;;0.88;100.00;101351.50;4962694;28;20029;-79
2021/11/22 02:50:36;;;;;;;2.60;0.13;;;2.70;99.90;;;0.92;100.00;101348.03;5001181;28;20532;-78
2021/11/22 02:53:03;;;;;;;0.43;0.22;;;2.80;99.90;;;0.91;100.00;101355.84;4951679;28;20474;-79
2021/11/22 02:55:29;;;;;;;0.00;0.00;;;2.80;99.90;;;0.95;100.00;101344.59;4935892;28;20106;-80
2021/11/22 02:57:55;;;;;;;0.75;0.10;;;2.80;99.90;;;0.99;100.00;101357.59;4964821;28;20817;-79
2021/11/22 03:00:28;;;;;;;0.55;0.10;;;3.00;99.90;;;1.24;100.00;101365.44;4961579;28;20030;-79
2021/11/22 03:02:57;;;;;;;0.10;0.10;;;3.10;99.90;;;1.27;100.00;101355.03;4971752;28;20034;-79
2021/11/22 03:05:24;;;;;;;2.85;0.35;;;3.20;99.90;;;1.40;100.00;101355.94;4961703;28;20123;-79
2021/11/22 03:07:55;;;;;;;1.38;0.30;;;3.30;99.90;;;1.44;100.00;101366.31;4961353;28;20041;-79
2021/11/22 03:10:26;;;;;;;0.60;0.15;;;3.30;99.90;;;1.44;100.00;101352.47;4959484;28;20041;-79
2021/11/22 03:12:53;;;;;;;0.20;0.20;;;3.30;99.90;;;1.44;100.00;101337.75;4974619;28;20077;-79
2021/11/22 03:15:21;;;;;;;1.38;0.30;;;3.20;99.90;;;1.39;100.00;101331.72;4973877;28;20049;-79
2021/11/22 03:17:49;;;;;;;3.35;0.30;;;3.20;99.90;;;1.37;100.00;101333.44;4943370;28;20030;-79
2021/11/22 03:20:20;;;;;;;0.20;0.20;;;3.30;99.90;;;1.44;100.00;101332.56;4968335;28;20104;-79
2021/11/22 03:22:48;;;;;;;4.90;0.30;;;3.20;99.90;;;1.30;100.00;101313.56;4993036;28;20082;-79
2021/11/22 03:25:17;;;;;;;0.30;0.10;;;3.20;99.90;;;1.25;100.00;101328.22;4947324;28;20044;-78
2021/11/22 03:27:47;;;;;;;0.60;0.20;;;3.10;99.90;;;1.24;100.00;101313.53;4963804;28;20030;-78
2021/11/22 03:30:15;;;;;;;1.77;0.20;;;3.10;99.90;;;1.26;100.00;101309.22;4992516;28;20519;-79
2021/11/22 03:32:42;;;;;;;0.10;0.10;;;;;;;1.35;100.00;101313.56;4941035;28;20044;-78
2021/11/22 03:35:11;;;;;;;0.45;0.20;;;3.20;99.90;;;1.27;100.00;101315.25;4984976;28;20124;-78
2021/11/22 03:37:37;;;;;;;0.98;0.10;;;3.20;99.90;;;1.33;100.00;101318.72;4965613;28;20033;-79
2021/11/22 03:40:06;;;;;;;2.30;0.60;;;3.20;99.90;;;1.38;100.00;101322.22;4968598;28;20516;-79
2021/11/22 03:45:21;;;;;;;2.20;0.20;;;3.40;99.90;;;1.65;100.00;101346.44;4978509;28;20149;-78
2021/11/22 03:47:47;;;;;;;0.52;0.28;;;3.50;99.90;;;1.74;100.00;101349.03;4980413;28;20082;-79
2021/11/22 03:50:13;;;;;;;5.30;0.20;;;3.50;99.90;;;1.72;100.00;101342.97;4962389;28;20253;-79
2021/11/22 03:52:39;;;;;;;0.00;0.00;;;3.60;99.90;;;1.87;100.00;101351.63;4987810;28;20503;-79
2021/11/22 03:55:05;;;;;;;0.10;0.10;;;3.60;99.90;;;1.76;100.00;101336.91;4937255;28;20038;-78
2021/11/22 03:57:31;;;;;;;0.20;0.10;;;3.50;99.90;;;1.75;100.00;101345.59;4959432;28;20485;-79
2021/11/22 04:00:08;;;;;;;2.28;0.30;;;3.60;99.90;;;1.80;100.00;101342.97;4958550;28;20068;-79
2021/11/22 04:02:34;;;;;;;0.45;0.20;;;3.60;99.90;;;1.87;100.00;101349.88;4950759;28;20027;-78
2021/11/22 04:05:05;;;;;;;2.00;0.25;;;3.70;99.90;;;1.87;100.00;101351.63;4953227;28;20023;-79
2021/11/22 04:07:32;;;;;;;0.63;0.28;;;3.70;99.90;;;1.83;100.00;101351.59;4975494;28;20030;-79
2021/11/22 04:09:58;;;;;;;0.20;0.20;;;3.60;99.90;;;1.91;100.00;101355.97;5020940;28;20117;-78
2021/11/22 04:12:25;;;;;;;0.10;0.10;;;3.80;99.90;;;2.02;100.00;101356.81;4964883;28;20019;-79
2021/11/22 04:14:52;;;;;;;1.70;0.10;;;3.90;99.90;;;2.12;100.00;101358.53;4949808;28;20382;-79
2021/11/22 04:17:18;;;;;;;1.67;0.22;;;4.00;99.90;;;2.15;100.00;101360.25;4943634;28;20030;-79
2021/11/22 04:19:47;;;;;;;1.85;0.28;;;4.00;99.90;;;2.18;100.00;101363.72;4998274;28;20088;-79
2021/11/22 04:22:13;;;;;;;0.13;0.10;;;4.00;99.90;;;2.07;100.00;101359.38;4967279;28;20018;-79
2021/11/22 04:24:40;;;;;;;0.10;0.10;;;4.00;99.90;;;2.10;100.00;101375.00;4969518;28;20036;-78
2021/11/22 04:27:09;;;;;;;2.30;0.20;;;3.90;99.90;;;2.11;100.00;101376.72;4976940;28;20041;-79
2021/11/22 04:29:40;;;;;;;0.28;0.13;;;;;;;2.10;100.00;101373.25;4976452;28;20047;-79
2021/11/22 04:32:09;;;;;;;2.00;0.40;;;4.00;99.90;;;2.17;100.00;101380.16;4961068;28;20087;-79
2021/11/22 04:34:37;;;;;;;0.60;0.22;;;4.10;99.90;;;2.33;100.00;101391.38;4954844;28;20025;-79
2021/11/22 04:37:07;;;;;;;0.30;0.10;;;4.10;99.90;;;2.28;100.00;101377.53;4957173;28;20028;-79
2021/11/22 04:39:34;;;;;;;2.95;0.45;;;4.20;99.90;;;2.44;100.00;101391.34;4990185;28;20041;-79
2021/11/22 04:42:00;;;;;;;0.20;0.20;;;4.30;99.90;;;2.49;100.00;101397.44;4988570;28;20040;-78
2021/11/22 04:44:26;;;;;;;0.20;0.10;;;4.30;99.90;;;2.47;100.00;101399.16;4956241;28;20075;-78
2021/11/22 04:46:55;;;;;;;0.38;0.20;;;4.30;99.90;;;2.44;100.00;101397.44;4951244;28;20030;-79
2021/11/22 04:49:21;;;;;;;0.28;0.20;;;4.20;99.90;;;2.40;100.00;101397.47;4976384;28;20096;-79
2021/11/22 04:51:47;;;;;;;6.47;0.17;;;4.20;99.90;;;2.36;100.00;101413.94;4959983;28;20066;-79
2021/11/22 04:54:13;;;;;;;0.10;0.10;;;4.20;99.90;;;2.48;100.00;101406.09;4963405;28;20545;-79
2021/11/22 04:56:39;;;;;;;0.28;0.10;;;4.30;99.90;;;2.41;100.00;101394.84;4949701;28;20067;-78
2021/11/22 04:59:05;;;;;;;0.52;0.30;;;4.30;99.90;;;2.54;100.00;101415.63;4977438;28;20090;-79
2021/11/22 05:01:31;;;;;;;0.10;0.10;;;;;;;2.54;100.00;101410.41;4968982;28;20033;-78
2021/11/22 05:04:00;;;;;;;0.63;0.20;;;4.30;99.90;;;2.51;100.00;101413.03;4963826;28;20061;-79
2021/11/22 05:06:26;;;;;;;1.20;0.30;;;4.30;99.90;;;2.46;100.00;101413.91;4963925;28;20084;-79
2021/11/22 05:08:52;;;;;;;1.45;0.30;;;4.30;99.90;;;2.49;100.00;101409.56;4950463;28;20032;-79
2021/11/22 05:11:18;;;;;;;1.08;0.20;;;4.30;99.90;;;2.44;100.00;101407.84;4953956;28;20038;-79
2021/11/22 05:13:44;;;;;;;0.80;0.20;;;4.20;99.90;;;2.37;100.00;101418.25;4921329;28;20346;-79
2021/11/22 05:16:10;;;;;;;1.08;0.30;;;4.20;99.90;;;2.41;100.00;101422.56;4938501;28;20033;-79
2021/11/22 05:18:36;;;;;;;0.52;0.38;;;4.20;99.90;;;2.38;100.00;101425.19;4954024;28;20435;-79
2021/11/22 05:21:02;;;;;;;0.20;0.20;;;4.20;99.90;;;2.34;100.00;101431.25;4977398;28;20461;-79
2021/11/22 05:23:31;;;;;;;0.20;0.17;;;4.20;99.90;;;2.44;100.00;101440.75;4956084;28;20481;-79
2021/11/22 05:25:57;;;;;;;0.77;0.20;;;4.20;99.90;;;2.34;100.00;101431.25;4982227;28;21583;-78
2021/11/22 05:28:23;;;;;;;0.60;0.30;;;4.20;99.90;;;2.37;100.00;101442.50;4948970;28;20100;-79
2021/11/22 05:30:49;;;;;;;0.45;0.20;;;4.30;99.90;;;2.49;100.00;101456.38;4945211;28;20026;-78
2021/11/22 05:33:16;;;;;;;0.40;0.30;;;4.30;99.90;;;2.42;100.00;101452.91;4973730;28;20060;-78
2021/11/22 05:35:51;;;;;;;0.32;0.20;;;4.30;99.90;;;2.44;100.00;101452.03;4962449;28;20029;-79
2021/11/22 05:38:17;;;;;;;0.20;0.20;;;4.30;99.90;;;2.46;100.00;101460.69;4962656;28;20030;-79
2021/11/22 05:40:43;;;;;;;1.50;0.20;;;4.20;99.90;;;2.36;100.00;101452.91;5019417;28;20044;-79
2021/11/22 05:43:11;;;;;;;2.65;0.30;;;4.20;99.90;;;2.30;100.00;101455.50;4942557;28;20088;-79
2021/11/22 05:45:37;;;;;;;0.32;0.20;;;4.20;99.90;;;2.26;100.00;101459.84;4930799;28;20508;-79
2021/11/22 05:48:07;;;;;;;0.65;0.20;;;4.10;99.90;;;2.14;100.00;101463.31;5000435;28;20040;-79
2021/11/22 05:50:34;;;;;;;0.98;0.10;;;4.00;99.90;;;2.07;100.00;101463.31;4958959;28;20113;-79
2021/11/22 05:53:04;;;;;;;0.38;0.20;;;4.00;99.90;;;2.11;100.00;101473.69;4957184;28;20142;-78
2021/11/22 05:55:41;;;;;;;0.03;0.03;;;3.90;99.90;;;2.01;100.00;101475.44;4959730;28;20108;-79
2021/11/22 05:58:13;;;;;;;0.20;0.20;;;3.90;99.90;;;1.96;100.00;101473.69;4999931;28;20108;-78
2021/11/22 06:00:40;;;;;;;0.85;0.38;;;3.80;99.90;;;1.84;100.00;101483.19;4947782;28;20109;-79
2021/11/22 06:03:07;;;;;;;2.55;0.22;;;3.70;99.90;;;1.79;100.00;101484.94;4989687;28;20068;-79
2021/11/22 06:05:33;;;;;;;1.38;0.50;;;3.60;99.90;;;1.75;100.00;101484.91;4950611;28;20038;-79
2021/11/22 06:08:00;;;;;;;1.58;0.47;;;3.60;99.90;;;1.71;100.00;101497.03;4961408;28;20041;-78
2021/11/22 06:10:27;;;;;;;0.82;0.30;;;3.50;99.90;;;1.66;100.00;101498.72;4976243;28;20507;-79
2021/11/22 06:12:53;;;;;;;0.15;0.15;;;3.50;99.90;;;1.66;100.00;101501.31;4946198;28;20024;-78
2021/11/22 06:15:19;;;;;;;1.00;0.10;;;3.50;99.90;;;1.63;100.00;101509.97;4949269;28;20445;-79
2021/11/22 06:17:46;;;;;;;0.55;0.25;;;3.50;99.90;;;1.62;100.00;101507.38;5000716;28;20482;-79
2021/11/22 06:20:12;;;;;;;0.25;0.20;;;3.50;99.90;;;1.66;100.00;101518.66;4958853;28;20034;-78
2021/11/22 06:22:39;;;;;;;2.15;0.30;;;3.50;99.90;;;1.67;100.00;101520.41;4975942;28;20029;-79
2021/11/22 06:25:07;;;;;;;0.35;0.22;;;3.50;99.90;;;1.71;100.00;101519.53;4957715;28;20033;-79
2021/11/22 06:27:34;;;;;;;1.30;0.40;;;3.50;99.90;;;1.70;100.00;101525.59;4985450;28;20038;-78
2021/11/22 06:30:00;;;;;;;0.80;0.32;;;3.60;99.90;;;1.68;100.00;101517.78;4935183;28;20509;-79
2021/11/22 06:32:28;;;;;;;0.28;0.20;;;3.60;99.90;;;1.74;100.00;101530.78;4967556;28;20079;-78
2021/11/22 06:34:58;;;;;;;0.55;0.20;;;3.60;99.90;;;1.83;100.00;101537.72;4984975;28;20113;-79
2021/11/22 06:37:26;;;;;;;0.15;0.10;;;3.70;99.90;;;1.88;100.00;101545.53;4996896;28;20026;-79
2021/11/22 06:39:54;;;;;;;1.15;0.30;;;3.70;99.90;;;1.77;100.00;101530.81;4973975;28;20029;-79
2021/11/22 06:42:21;;;;;;;0.30;0.30;;;3.60;99.90;;;1.76;100.00;101548.97;4977972;28;20496;-78
2021/11/22 06:44:50;;;;;;;0.20;0.15;;;3.60;99.90;;;1.78;100.00;101548.09;4966981;28;22331;-78
2021/11/22 06:47:18;;;;;;;0.70;0.20;;;3.60;99.90;;;1.76;100.00;101536.00;4957702;28;20502;-79
2021/11/22 06:49:44;;;;;;;0.20;0.20;;;3.50;99.90;;;1.70;100.00;101549.81;4968195;28;20049;-79
2021/11/22 06:52:11;;;;;;;0.32;0.10;;;3.50;99.90;;;1.72;100.00;101542.91;4961054;28;20030;-78
2021/11/22 06:54:37;;;;;;;2.22;0.10;;;3.50;99.90;;;1.68;100.00;101546.34;4993172;28;20137;-79
2021/11/22 06:57:04;;;;;;;0.50;0.10;;;3.50;99.90;;;1.69;100.00;101553.28;4998180;28;20037;-79
2021/11/22 06:59:32;;;;;;;0.10;0.10;;;3.50;99.90;;;1.66;100.00;101560.19;4981657;28;20032;-79
2021/11/22 07:01:58;;;;;;;0.10;0.10;;;3.60;99.90;;;1.81;100.00;101571.50;4954069;28;20053;-79
2021/11/22 07:04:24;;;;;;;0.30;0.20;;;3.60;99.90;;;1.82;100.00;101569.78;4987251;28;20317;-78
2021/11/22 07:06:52;;;;;;;0.25;0.20;;;3.60;99.90;;;1.81;100.00;101557.63;4965591;28;20088;-78
2021/11/22 07:09:19;;;;;;;0.17;0.10;;;3.70;99.90;;;1.88;100.00;101576.69;4967579;28;20151;-79
2021/11/22 07:11:47;;;;;;;0.15;0.10;;;3.70;99.90;;;1.89;100.00;101581.03;4957517;28;20029;-79
2021/11/22 07:14:13;;;;;;;0.10;0.10;;;3.70;99.90;;;1.95;100.00;101584.53;4954605;28;20050;-79
2021/11/22 07:16:39;;;;;;;0.32;0.10;;;3.80;99.90;;;2.00;100.00;101589.72;5000403;28;20037;-78
2021/11/22 07:19:05;;;;;;;0.10;0.10;;;3.90;99.90;;;2.11;100.00;101585.41;4959298;28;20037;-78
2021/11/22 07:21:31;;;;;;;0.00;0.00;;;3.90;99.90;;;2.12;100.00;101587.16;4965964;28;20034;-78
2021/11/22 07:24:00;;;;;;;0.30;0.10;;;4.00;99.90;;;2.09;100.00;101581.09;4982508;28;20033;-78
2021/11/22 07:26:26;;;;;;;0.10;0.10;;;4.00;99.90;;;2.15;100.00;101579.34;4997792;28;20091;-78
2021/11/22 07:28:52;;;;;;;0.30;0.17;;;3.90;99.90;;;2.13;100.00;101588.88;4957062;28;20508;-79
2021/11/22 07:31:18;;;;;;;0.00;0.00;;;4.00;99.90;;;2.05;100.00;101586.28;4968131;28;20096;-79
2021/11/22 07:33:44;;;;;;;0.28;0.10;;;4.00;99.90;;;2.11;100.00;101590.59;4971559;28;20500;-78
2021/11/22 07:36:10;;;;;;;3.50;0.20;;;4.00;99.90;;;2.16;100.00;101601.00;4968030;28;20025;-78
2021/11/22 07:38:36;;;;;;;0.08;0.08;;;4.00;99.90;;;2.16;100.00;101593.22;4962448;28;20027;-79
2021/11/22 07:41:12;;;;;;;0.20;0.10;;;4.00;99.90;;;2.10;100.00;101588.88;4949479;28;20021;-80
2021/11/22 07:43:38;;;;;;;0.28;0.10;;;3.90;99.90;;;2.02;99.44;101593.19;4950675;28;20802;-80
2021/11/22 07:46:07;;;;;;;0.10;0.10;;;3.90;99.90;;;1.99;99.27;101601.00;4970237;28;20521;-80
2021/11/22 07:48:33;;;;;;;1.35;0.20;;;3.90;99.90;;;1.97;99.20;101600.13;4995754;28;20613;-79
2021/11/22 07:51:03;;;;;;;0.15;0.10;;;3.90;99.90;;;2.07;100.00;101608.78;4961171;28;20053;-80
2021/11/22 07:53:31;;;;;;;0.10;0.10;;;3.90;99.90;;;2.07;100.00;101611.38;4986905;28;20036;-78
2021/11/22 07:56:00;;;;;;;0.00;0.00;;;4.00;99.90;;;2.29;100.00;101626.19;4981267;28;20079;-78
2021/11/22 07:58:26;;;;;;;0.10;0.10;;;4.20;99.90;;;2.39;99.86;101635.69;4990070;28;20398;-79
2021/11/22 08:00:52;;;;;;;1.17;0.10;;;4.20;99.90;;;2.42;98.36;101633.13;4941534;28;20033;-80
2021/11/22 08:03:18;;;;;;;0.10;0.08;;;4.20;99.90;;;2.45;97.22;101627.06;4978052;28;20034;-80
2021/11/22 08:05:46;;;;;;;0.00;0.00;;;4.30;99.90;;;2.53;96.35;101637.44;4955270;28;20042;-79
2021/11/22 08:08:16;;;;;;;0.22;0.08;;;4.40;99.90;;;2.59;95.83;101633.16;4944007;28;20029;-78
2021/11/22 08:10:46;;;;;;;1.80;0.10;;;4.50;99.90;;;2.67;94.00;101640.94;4940363;28;20210;-80
2021/11/22 08:13:13;;;;;;;0.10;0.10;;;4.50;99.90;;;2.74;94.81;101649.63;4973977;28;20030;-80
2021/11/22 08:15:39;;;;;;;0.20;0.10;;;4.60;99.90;;;2.78;93.44;101646.16;4989032;28;20041;-80
2021/11/22 08:18:11;;;;;;;0.10;0.05;;;4.60;99.90;;;2.82;91.28;101655.69;4946024;28;20054;-80
2021/11/22 08:20:37;;;;;;;3.85;0.22;;;4.70;99.90;;;2.78;93.20;101656.56;4966510;28;20075;-80
2021/11/22 08:23:04;;;;;;;0.65;0.10;;;4.60;99.90;;;2.76;93.84;101658.28;4957237;28;20050;-81
2021/11/22 08:25:33;;;;;;;0.50;0.10;;;4.60;99.90;;;2.76;93.63;101658.28;4963616;28;20041;-80
2021/11/22 08:28:02;;;;;;;0.13;0.13;;;4.70;99.90;;;2.84;93.49;101664.38;4942149;28;20018;-80
2021/11/22 08:30:30;;;;;;;0.10;0.10;;;4.70;99.90;;;2.87;94.34;101672.16;4990311;28;21502;-78
2021/11/22 08:32:57;;;;;;;1.38;0.13;;;;;;;2.80;91.76;101655.69;4959676;28;20401;-79
2021/11/22 08:35:31;;;;;;;0.00;0.00;;;4.70;99.90;;;2.90;89.94;101682.59;4965418;28;20046;-80
2021/11/22 08:37:59;;;;;;;2.08;0.10;;;4.80;99.90;;;3.01;90.11;101682.59;4940744;28;20029;-79
2021/11/22 08:40:27;;;;;;;0.32;0.20;;;4.80;99.90;;;3.05;89.00;101693.00;4980698;28;20052;-78
2021/11/22 08:42:57;;;;;;;0.68;0.08;;;4.90;99.90;;;3.13;88.07;101705.13;4965926;28;20026;-80
2021/11/22 08:45:25;;;;;;;0.00;0.00;;;4.90;99.90;;;3.01;87.48;101691.25;4939470;28;20045;-80
2021/11/22 08:47:53;;;;;;;0.03;0.03;;;4.80;99.90;;;2.92;88.08;101693.00;5004116;28;20062;-80
2021/11/22 08:50:23;;;;;;;0.43;0.10;;;4.80;99.90;;;3.03;87.85;101699.94;4961021;28;20025;-80
2021/11/22 08:52:50;;;;;;;0.08;0.08;;;4.90;99.90;;;3.17;87.33;101712.91;4974685;28;20107;-80
2021/11/22 08:55:18;;;;;;;1.08;0.10;;;5.00;99.90;;;3.11;85.86;101699.94;4953691;28;20053;-81
2021/11/22 08:57:45;;;;;;;1.10;0.10;;;4.80;99.90;;;2.84;84.81;101688.63;5002643;28;20551;-80
2021/11/22 09:00:21;;;;;;;0.60;0.25;;;4.70;99.90;;;2.79;86.03;101690.38;4954074;28;20473;-79
2021/11/22 09:02:50;;;;;;;2.78;0.10;;;4.60;99.90;;;2.71;85.25;101694.69;4974923;28;20064;-78
2021/11/22 09:05:22;;;;;;;0.45;0.03;;;4.60;99.90;;;2.76;86.63;101698.16;4946008;28;20029;-77
2021/11/22 09:07:49;;;;;;;0.30;0.13;;;4.50;99.90;;;2.77;86.28;101694.72;4972587;28;20021;-79
2021/11/22 09:10:17;;;;;;;0.45;0.10;;;4.60;99.90;;;2.75;87.62;101699.03;4974655;28;20033;-79
2021/11/22 09:12:44;;;;;;;0.20;0.17;;;4.60;99.90;;;2.94;88.47;101699.94;4940107;28;20128;-78
2021/11/22 09:15:13;;;;;;;0.10;0.10;;;4.80;99.90;;;3.19;88.39;101715.53;4918193;28;20025;-79
2021/11/22 09:17:40;;;;;;;0.10;0.10;;;5.00;99.90;;;3.44;85.68;101726.81;4969290;28;20491;-79
2021/11/22 09:20:20;;;;;;;1.20;0.22;;;5.20;99.90;;;3.58;80.40;101725.03;4942530;28;20175;-78
2021/11/22 09:22:54;;;;;;;0.30;0.10;;;5.20;99.90;;;3.31;80.18;101717.28;4954169;28;20437;-79
2021/11/22 09:25:21;;;;;;;0.95;0.10;;;5.10;99.90;;;3.36;82.31;101711.19;4960750;28;20071;-79
2021/11/22 09:28:14;;;;;;;0.80;0.10;;;5.10;99.90;;;3.37;83.17;101715.53;4954172;28;20046;-79
2021/11/22 09:30:58;;;;;;;0.10;0.10;;;5.20;99.90;;;3.62;83.53;101725.91;4978490;28;20477;-79
2021/11/22 09:33:38;;;;;;;0.17;0.10;;;5.40;99.90;;;3.65;82.27;101724.19;4938580;28;20034;-79
2021/11/22 09:36:05;;;;;;;0.10;0.10;;;5.40;99.90;;;3.68;79.86;101729.38;4938775;28;20049;-79
2021/11/22 09:38:34;;;;;;;0.10;0.10;;;5.50;99.90;;;3.68;78.55;101725.91;4959931;28;20034;-79
2021/11/22 09:41:06;;;;;;;0.10;0.10;;;5.50;99.90;;;3.70;77.65;101724.16;4933997;28;20026;-78
2021/11/22 09:43:33;;;;;;;0.28;0.20;;;4.70;99.90;;;3.71;78.33;101720.66;4951398;28;20429;-78
2021/11/22 09:46:02;;;;;;;0.10;0.10;;;5.50;99.90;;;3.75;77.67;101727.59;4954066;28;20541;-78
2021/11/22 09:48:34;;;;;;;0.57;0.10;;;5.50;99.90;;;3.93;79.47;101731.94;4945428;28;20959;-78
2021/11/22 09:51:01;;;;;;;0.65;0.30;;;5.60;99.90;;;3.80;78.66;101736.31;4935789;28;20034;-78
2021/11/22 09:53:31;;;;;;;2.72;0.22;;;5.60;99.90;;;3.73;79.23;101726.75;4931280;28;20072;-78
2021/11/22 09:55:59;;;;;;;0.15;0.10;;;5.40;99.90;;;3.45;78.57;101726.78;4974624;28;20052;-78
2021/11/22 09:58:25;;;;;;;0.10;0.10;;;5.20;99.90;;;3.15;80.17;101713.78;4956687;28;20027;-79
2021/11/22 10:01:10;;;;;;;0.73;0.10;;;5.00;99.90;;;3.07;80.87;101726.81;4973448;28;20043;-79
2021/11/22 10:03:39;;;;;;;0.10;0.10;;;5.10;99.90;;;3.51;82.62;101740.69;4932721;28;20421;-78
2021/11/22 10:06:10;;;;;;;4.25;0.20;;;5.30;99.90;;;3.68;82.38;101741.53;4903899;28;20041;-78
2021/11/22 10:08:57;;;;;;;0.10;0.10;;;5.40;99.90;;;3.61;82.77;101739.81;4978248;28;20030;-78
2021/11/22 10:11:30;;;;;;;1.75;0.10;;;5.70;99.90;;;3.75;85.31;101738.03;4942092;28;21658;-78
2021/11/22 10:14:04;;;;;;;0.13;0.10;;;5.40;99.90;;;3.82;86.76;101741.47;4959463;28;20076;-78
2021/11/22 10:16:30;;;;;;;0.22;0.10;;;5.40;99.90;;;3.63;83.87;101738.94;4953624;28;20397;-78
2021/11/22 10:18:59;;;;;;;0.00;0.00;;;5.40;99.90;;;3.64;83.20;101739.78;4974965;28;20916;-78
2021/11/22 10:21:37;;;;;;;0.10;0.10;;;5.50;99.90;;;3.94;85.28;101751.03;4977851;28;20509;-80
2021/11/22 10:24:09;;;;;;;0.10;0.10;;;5.50;99.90;;;3.83;85.18;101748.44;4939826;28;20038;-79
2021/11/22 10:26:51;;;;;;;0.15;0.10;;;5.40;99.90;;;3.61;84.37;101739.81;4946199;28;20040;-77